createdAt,value
2023-02-06T00:01:46.351Z,21.10
2023-02-06T00:04:15.609Z,20.33
2023-02-06T00:06:44.807Z,20.53
2023-02-06T00:09:13.543Z,21.33
2023-02-06T00:11:41.973Z,20.60
2023-02-06T00:14:10.587Z,20.83
2023-02-06T00:16:39.162Z,22.40
2023-02-06T00:19:10.973Z,20.13
2023-02-06T00:21:39.558Z,20.03
2023-02-06T00:24:08.457Z,21.30
2023-02-06T00:26:37.092Z,21.77
2023-02-06T00:29:05.541Z,23.07
2023-02-06T00:31:34.011Z,22.13
2023-02-06T00:34:03.904Z,21.60
2023-02-06T00:36:34.331Z,24.60
2023-02-06T00:39:02.838Z,21.43
2023-02-06T00:41:31.290Z,21.90
2023-02-06T00:43:59.625Z,23.17
2023-02-06T00:46:28.110Z,23.40
2023-02-06T00:48:56.476Z,23.00
2023-02-06T00:51:24.900Z,22.63
2023-02-06T00:53:54.583Z,22.93
2023-02-06T00:56:23.042Z,22.20
2023-02-06T00:58:51.511Z,21.37
2023-02-06T01:01:19.899Z,22.97
2023-02-06T01:03:48.576Z,22.07
2023-02-06T01:06:17.015Z,20.73
2023-02-06T01:08:45.437Z,21.30
2023-02-06T01:11:18.997Z,21.83
2023-02-06T01:13:48.306Z,22.03
2023-02-06T01:16:19.441Z,23.13
2023-02-06T01:18:48.553Z,21.67
2023-02-06T01:21:20.539Z,21.90
2023-02-06T01:23:50.529Z,21.93
2023-02-06T01:26:24.459Z,22.07
2023-02-06T01:28:53.068Z,22.23
2023-02-06T01:31:24.127Z,23.20
2023-02-06T01:33:53.636Z,22.73
2023-02-06T01:36:23.260Z,22.87
2023-02-06T01:38:52.329Z,22.73
2023-02-06T01:41:24.460Z,22.60
2023-02-06T01:44:11.704Z,22.47
2023-02-06T01:46:42.132Z,22.73
2023-02-06T01:49:18.107Z,22.23
2023-02-06T01:51:47.431Z,23.40
2023-02-06T01:54:16.795Z,23.97
2023-02-06T01:56:52.882Z,24.33
2023-02-06T01:59:22.150Z,23.73
2023-02-06T02:01:50.814Z,24.70
2023-02-06T02:04:22.716Z,23.33
2023-02-06T02:07:04.390Z,25.50
2023-02-06T02:09:34.759Z,25.23
2023-02-06T02:12:04.962Z,27.73
2023-02-06T02:14:33.585Z,25.60
2023-02-06T02:17:20.806Z,25.27
2023-02-06T02:20:36.738Z,24.87
2023-02-06T02:23:21.652Z,24.60
2023-02-06T02:26:38.689Z,25.93
2023-02-06T02:30:00.980Z,23.50
2023-02-06T02:33:03.709Z,26.07
2023-02-06T02:35:50.861Z,26.23
2023-02-06T02:38:35.277Z,24.93
2023-02-06T02:41:11.959Z,27.03
2023-02-06T02:43:45.622Z,26.03
2023-02-06T02:46:27.519Z,26.53
2023-02-06T02:49:01.401Z,25.27
2023-02-06T02:51:31.413Z,24.70
2023-02-06T02:53:59.894Z,26.07
2023-02-06T02:56:31.284Z,25.93
2023-02-06T02:59:05.535Z,25.53
2023-02-06T03:01:39.066Z,25.23
2023-02-06T03:04:14.210Z,26.90
2023-02-06T03:07:05.463Z,26.73
2023-02-06T03:10:00.109Z,26.43
2023-02-06T03:12:39.648Z,26.80
2023-02-06T03:15:21.981Z,26.43
2023-02-06T03:17:57.141Z,24.17
2023-02-06T03:20:26.481Z,26.70
2023-02-06T03:22:58.392Z,24.83
2023-02-06T03:25:35.179Z,27.20
2023-02-06T03:28:06.321Z,26.03
2023-02-06T03:30:35.895Z,27.37
2023-02-06T03:33:09.142Z,26.57
2023-02-06T03:35:40.510Z,28.17
2023-02-06T03:38:10.755Z,26.13
2023-02-06T03:40:43.501Z,27.47
2023-02-06T03:43:18.615Z,27.87
2023-02-06T03:45:52.586Z,27.47
2023-02-06T03:48:27.924Z,27.10
2023-02-06T03:51:00.499Z,26.77
2023-02-06T03:53:31.035Z,27.47
2023-02-06T03:56:07.537Z,27.87
2023-02-06T03:58:36.050Z,27.40
2023-02-06T04:01:05.707Z,28.27
2023-02-06T04:03:34.414Z,25.90
2023-02-06T04:06:02.990Z,28.13
2023-02-06T04:08:32.674Z,28.97
2023-02-06T04:11:01.002Z,28.70
2023-02-06T04:13:29.436Z,30.00
2023-02-06T04:15:57.781Z,29.13
2023-02-06T04:18:26.135Z,28.13
2023-02-06T04:20:54.498Z,30.13
2023-02-06T04:23:23.381Z,27.67
2023-02-06T04:25:53.112Z,30.27
2023-02-06T04:28:21.521Z,28.47
2023-02-06T04:30:50.063Z,28.27
2023-02-06T04:33:18.573Z,28.10
2023-02-06T04:35:48.364Z,29.10
2023-02-06T04:38:16.849Z,27.63
2023-02-06T04:40:45.478Z,28.03
2023-02-06T04:43:15.280Z,29.33
2023-02-06T04:45:43.600Z,27.73
2023-02-06T04:48:11.988Z,28.80
2023-02-06T04:50:40.340Z,27.60
2023-02-06T04:53:08.714Z,27.73
2023-02-06T04:55:37.422Z,26.80
2023-02-06T04:58:05.939Z,28.20
2023-02-06T05:00:37.981Z,28.20
2023-02-06T05:03:07.192Z,28.90
2023-02-06T05:05:35.761Z,28.70
2023-02-06T05:08:04.156Z,29.33
2023-02-06T05:10:32.547Z,26.97
2023-02-06T05:13:02.068Z,27.80
2023-02-06T05:15:30.420Z,26.47
2023-02-06T05:18:00.172Z,26.87
2023-02-06T05:20:28.913Z,25.90
2023-02-06T05:22:57.469Z,24.47
2023-02-06T05:25:26.919Z,23.10
2023-02-06T05:27:57.500Z,25.37
2023-02-06T05:30:26.404Z,24.33
2023-02-06T05:32:54.827Z,27.03
2023-02-06T05:35:25.196Z,24.33
2023-02-06T05:37:53.715Z,25.10
2023-02-06T05:40:22.371Z,24.57
2023-02-06T05:42:51.310Z,24.50
2023-02-06T05:45:19.914Z,25.67
2023-02-06T05:47:48.238Z,25.37
2023-02-06T05:50:17.078Z,25.50
2023-02-06T05:52:46.887Z,26.70
2023-02-06T05:55:17.050Z,26.10
2023-02-06T05:57:45.488Z,28.70
2023-02-06T06:00:15.628Z,26.77
2023-02-06T06:02:43.920Z,26.83
2023-02-06T06:05:12.663Z,29.03
2023-02-06T06:07:41.001Z,30.30
2023-02-06T06:10:11.161Z,32.97
2023-02-06T06:12:39.532Z,36.60
2023-02-06T06:15:09.427Z,39.60
2023-02-06T06:17:37.820Z,41.57
2023-02-06T06:20:07.282Z,43.27
2023-02-06T06:22:35.657Z,45.10
2023-02-06T06:25:05.147Z,46.67
2023-02-06T06:27:36.835Z,44.87
2023-02-06T06:30:05.886Z,44.13
2023-02-06T06:32:34.353Z,43.20
2023-02-06T06:35:02.725Z,44.37
2023-02-06T06:37:31.446Z,36.23
2023-02-06T06:39:59.857Z,38.60
2023-02-06T06:42:28.267Z,34.57
2023-02-06T06:44:58.760Z,31.27
2023-02-06T06:47:27.164Z,30.83
2023-02-06T06:49:55.604Z,28.00
2023-02-06T06:52:25.652Z,27.67
2023-02-06T06:54:54.760Z,27.70
2023-02-06T06:57:23.920Z,25.63
2023-02-06T06:59:52.524Z,26.17
2023-02-06T07:02:22.263Z,24.77
2023-02-06T07:04:50.675Z,23.83
2023-02-06T07:07:19.047Z,23.30
2023-02-06T07:09:47.958Z,23.83
2023-02-06T07:12:16.384Z,24.10
2023-02-06T07:14:44.746Z,26.17
2023-02-06T07:17:13.121Z,24.77
2023-02-06T07:19:42.952Z,24.90
2023-02-06T07:22:11.307Z,24.20
2023-02-06T07:24:39.827Z,22.93
2023-02-06T07:27:08.502Z,23.53
2023-02-06T07:29:38.590Z,22.03
2023-02-06T07:32:08.014Z,23.00
2023-02-06T07:34:37.848Z,22.83
2023-02-06T07:37:07.892Z,21.10
2023-02-06T07:39:36.264Z,20.80
2023-02-06T07:42:05.380Z,20.50
2023-02-06T07:44:33.926Z,20.90
2023-02-06T07:47:02.277Z,20.93
2023-02-06T07:49:30.743Z,19.87
2023-02-06T07:51:59.081Z,21.40
2023-02-06T07:54:29.139Z,20.33
2023-02-06T07:56:57.776Z,20.17
2023-02-06T07:59:26.444Z,19.77
2023-02-06T08:01:55.083Z,20.60
2023-02-06T08:04:23.437Z,24.42
2023-02-06T08:06:51.882Z,21.60
2023-02-06T08:09:20.296Z,20.73
2023-02-06T08:11:49.984Z,28.85
2023-02-06T08:14:18.298Z,24.53
2023-02-06T08:16:46.905Z,22.47
2023-02-06T08:19:15.284Z,21.77
2023-02-06T08:21:43.946Z,22.23
2023-02-06T08:24:14.304Z,22.33
2023-02-06T08:26:43.853Z,21.50
2023-02-06T08:29:15.415Z,20.60
2023-02-06T08:31:44.607Z,19.87
2023-02-06T08:34:15.359Z,20.63
2023-02-06T08:36:43.986Z,20.43
2023-02-06T08:39:15.234Z,20.57
2023-02-06T08:41:45.065Z,21.53
2023-02-06T08:44:18.640Z,22.10
2023-02-06T08:46:52.273Z,20.67
2023-02-06T08:49:26.935Z,20.47
2023-02-06T08:51:55.773Z,21.50
2023-02-06T08:54:25.428Z,21.33
2023-02-06T08:56:56.758Z,22.07
2023-02-06T08:59:29.358Z,20.60
2023-02-06T09:02:00.450Z,21.53
2023-02-06T09:04:33.788Z,18.73
2023-02-06T09:07:02.213Z,19.30
2023-02-06T09:09:30.602Z,19.83
2023-02-06T09:12:03.303Z,19.10
2023-02-06T09:14:35.558Z,19.90
2023-02-06T09:17:04.406Z,20.77
2023-02-06T09:19:32.862Z,20.73
2023-02-06T09:22:01.229Z,20.23
2023-02-06T09:24:30.495Z,21.33
2023-02-06T09:27:00.423Z,22.23
2023-02-06T09:29:31.776Z,22.58
2023-02-06T09:32:02.498Z,22.63
2023-02-06T09:34:31.031Z,20.88
2023-02-06T09:37:02.174Z,22.73
2023-02-06T09:39:31.152Z,22.27
2023-02-06T09:42:06.430Z,22.30
2023-02-06T09:44:38.254Z,22.83
2023-02-06T09:47:23.764Z,23.25
2023-02-06T09:49:56.010Z,22.55
2023-02-06T09:52:42.998Z,23.73
2023-02-06T09:55:20.443Z,22.60
2023-02-06T09:57:58.318Z,21.75
2023-02-06T10:00:41.639Z,23.25
2023-02-06T10:03:30.937Z,22.60
2023-02-06T10:06:13.863Z,21.10
2023-02-06T10:08:49.885Z,20.98
2023-02-06T10:11:29.558Z,21.95
2023-02-06T10:14:01.512Z,22.70
2023-02-06T10:16:42.762Z,21.98
2023-02-06T10:19:20.267Z,22.58
2023-02-06T10:21:56.633Z,23.23
2023-02-06T10:24:38.517Z,21.63
2023-02-06T10:27:13.565Z,22.15
2023-02-06T10:29:46.274Z,21.42
2023-02-06T10:32:28.824Z,20.75
2023-02-06T10:35:25.866Z,19.77
2023-02-06T10:38:26.761Z,21.05
2023-02-06T10:41:01.241Z,21.25
2023-02-06T10:43:41.828Z,21.42
2023-02-06T10:46:43.466Z,21.02
2023-02-06T10:49:24.954Z,20.08
2023-02-06T10:51:59.320Z,22.15
2023-02-06T10:54:33.080Z,19.65
2023-02-06T10:57:02.021Z,21.95
2023-02-06T10:59:34.605Z,21.40
2023-02-06T11:02:23.517Z,23.97
2023-02-06T11:05:00.103Z,24.23
2023-02-06T11:07:34.317Z,24.13
2023-02-06T11:10:02.670Z,26.13
2023-02-06T11:12:36.806Z,25.23
2023-02-06T11:15:16.623Z,24.63
2023-02-06T11:17:47.128Z,27.33
2023-02-06T11:20:22.034Z,24.20
2023-02-06T11:22:53.748Z,22.73
2023-02-06T11:25:28.691Z,23.53
2023-02-06T11:27:59.167Z,25.87
2023-02-06T11:30:34.880Z,22.80
2023-02-06T11:33:08.230Z,23.67
2023-02-06T11:35:41.543Z,23.07
2023-02-06T11:38:17.956Z,23.17
2023-02-06T11:40:58.143Z,22.90
2023-02-06T11:43:28.993Z,22.60
2023-02-06T11:46:15.680Z,24.20
2023-02-06T11:48:46.076Z,23.47
2023-02-06T11:51:16.967Z,22.03
2023-02-06T11:54:01.223Z,21.53
2023-02-06T11:56:31.396Z,21.03
2023-02-06T11:59:07.360Z,22.20
2023-02-06T12:01:44.403Z,24.20
2023-02-06T12:04:24.041Z,23.93
2023-02-06T12:07:00.004Z,22.47
2023-02-06T12:09:30.065Z,22.90
2023-02-06T12:12:06.166Z,21.50
2023-02-06T12:14:41.282Z,23.23
2023-02-06T12:17:25.059Z,21.57
2023-02-06T12:20:04.016Z,25.10
2023-02-06T12:22:40.542Z,23.90
2023-02-06T12:25:25.980Z,21.60
2023-02-06T12:27:58.042Z,21.77
2023-02-06T12:30:37.743Z,21.67
2023-02-06T12:33:15.660Z,21.70
2023-02-06T12:35:49.834Z,22.70
2023-02-06T12:38:39.098Z,23.63
2023-02-06T12:41:27.951Z,22.50
2023-02-06T12:44:02.052Z,23.33
2023-02-06T12:46:30.893Z,23.67
2023-02-06T12:49:08.805Z,23.87
2023-02-06T12:51:43.326Z,23.07
2023-02-06T12:54:17.962Z,22.87
2023-02-06T12:56:52.157Z,24.27
2023-02-06T13:00:02.151Z,23.27
2023-02-06T13:03:02.943Z,20.40
2023-02-06T13:05:36.809Z,20.77
2023-02-06T13:08:10.905Z,20.00
2023-02-06T13:10:39.894Z,20.87
2023-02-06T13:13:28.244Z,22.00
2023-02-06T13:16:00.506Z,20.10
2023-02-06T13:18:54.719Z,21.77
2023-02-06T13:21:29.526Z,22.33
2023-02-06T13:24:20.782Z,21.47
2023-02-06T13:27:14.794Z,21.60
2023-02-06T13:29:46.485Z,22.37
2023-02-06T13:32:45.393Z,22.67
2023-02-06T13:35:26.546Z,23.17
2023-02-06T13:38:37.658Z,22.97
2023-02-06T13:41:37.244Z,24.97
2023-02-06T13:44:16.863Z,24.30
2023-02-06T13:47:28.156Z,28.33
2023-02-06T13:50:45.076Z,23.93
2023-02-06T13:53:44.268Z,28.30
2023-02-06T13:56:39.489Z,28.77
2023-02-06T13:59:16.789Z,32.53
2023-02-06T14:01:45.352Z,30.27
2023-02-06T14:04:24.886Z,31.97
2023-02-06T14:07:45.302Z,33.30
2023-02-06T14:11:17.572Z,33.27
2023-02-06T14:14:05.556Z,32.97
2023-02-06T14:16:49.548Z,35.57
2023-02-06T14:19:32.684Z,36.33
2023-02-06T14:22:11.334Z,34.00
2023-02-06T14:25:05.422Z,35.47
2023-02-06T14:27:48.380Z,35.27
2023-02-06T14:30:30.872Z,36.70
2023-02-06T14:33:21.855Z,36.73
2023-02-06T14:36:14.807Z,38.30
2023-02-06T14:39:10.774Z,40.20
2023-02-06T14:41:40.435Z,40.03
2023-02-06T14:44:14.565Z,43.37
2023-02-06T14:46:44.610Z,43.70
2023-02-06T14:49:18.853Z,41.53
2023-02-06T14:51:52.719Z,39.30
2023-02-06T14:54:34.860Z,40.87
2023-02-06T14:57:08.338Z,37.43
2023-02-06T14:59:36.739Z,37.10
2023-02-06T15:02:15.576Z,37.30
2023-02-06T15:04:48.580Z,38.73
2023-02-06T15:07:28.438Z,38.70
2023-02-06T15:10:08.580Z,37.63
2023-02-06T15:12:37.890Z,37.97
2023-02-06T15:15:20.481Z,38.43
2023-02-06T15:18:02.097Z,38.73
2023-02-06T15:20:36.631Z,42.67
2023-02-06T15:23:18.711Z,41.87
2023-02-06T15:26:03.739Z,41.77
2023-02-06T15:28:35.620Z,42.60
2023-02-06T15:31:04.956Z,42.63
2023-02-06T15:33:35.975Z,40.57
2023-02-06T15:36:06.137Z,40.33
2023-02-06T15:38:37.371Z,40.47
2023-02-06T15:41:09.586Z,49.33
2023-02-06T15:43:38.260Z,42.97
2023-02-06T15:46:07.457Z,42.77
2023-02-06T15:48:40.993Z,40.97
2023-02-06T15:51:25.243Z,41.40
2023-02-06T15:54:10.461Z,41.07
2023-02-06T15:56:42.886Z,42.10
2023-02-06T15:59:20.521Z,44.43
2023-02-06T16:01:50.043Z,45.50
2023-02-06T16:04:24.228Z,43.60
2023-02-06T16:07:05.184Z,42.80
2023-02-06T16:09:42.246Z,45.87
2023-02-06T16:12:12.495Z,42.97
2023-02-06T16:14:45.269Z,41.40
2023-02-06T16:17:31.516Z,45.07
2023-02-06T16:20:02.728Z,42.97
2023-02-06T16:22:34.185Z,42.80
2023-02-06T16:25:25.804Z,42.03
2023-02-06T16:27:54.751Z,41.97
2023-02-06T16:30:28.334Z,41.63
2023-02-06T16:32:58.935Z,39.43
2023-02-06T16:35:28.081Z,39.53
2023-02-06T16:37:57.124Z,39.87
2023-02-06T16:40:27.213Z,38.80
2023-02-06T16:42:55.890Z,39.47
2023-02-06T16:45:27.410Z,38.00
2023-02-06T16:47:56.464Z,37.60
2023-02-06T16:50:24.863Z,38.00
2023-02-06T16:52:58.057Z,36.30
2023-02-06T16:55:28.930Z,35.13
2023-02-06T16:58:01.506Z,37.33
2023-02-06T17:00:32.563Z,36.13
2023-02-06T17:03:01.412Z,35.57
2023-02-06T17:05:31.623Z,36.90
2023-02-06T17:08:01.690Z,34.47
2023-02-06T17:10:32.502Z,36.40
2023-02-06T17:13:00.853Z,36.43
2023-02-06T17:15:29.877Z,36.63
2023-02-06T17:17:58.336Z,34.83
2023-02-06T17:20:37.412Z,34.13
2023-02-06T17:23:06.876Z,37.77
2023-02-06T17:25:36.919Z,34.83
2023-02-06T17:28:07.570Z,31.80
2023-02-06T17:30:38.160Z,33.77
2023-02-06T17:33:07.633Z,33.70
2023-02-06T17:35:37.836Z,35.90
2023-02-06T17:38:06.739Z,35.40
2023-02-06T17:40:40.174Z,36.07
2023-02-06T17:43:09.005Z,35.47
2023-02-06T17:45:39.920Z,36.77
2023-02-06T17:48:09.030Z,36.40
2023-02-06T17:50:39.058Z,37.27
2023-02-06T17:53:10.343Z,36.13
2023-02-06T17:55:40.110Z,36.23
2023-02-06T17:58:08.670Z,36.50
2023-02-06T18:00:37.448Z,38.67
2023-02-06T18:03:06.240Z,36.07
2023-02-06T18:05:35.004Z,35.43
2023-02-06T18:08:03.536Z,39.20
2023-02-06T18:10:31.933Z,38.63
2023-02-06T18:13:01.719Z,38.60
2023-02-06T18:15:31.850Z,37.53
2023-02-06T18:18:00.323Z,38.97
2023-02-06T18:20:28.852Z,36.17
2023-02-06T18:22:57.307Z,38.23
2023-02-06T18:25:25.642Z,36.07
2023-02-06T18:27:54.230Z,36.73
2023-02-06T18:30:24.428Z,37.73
2023-02-06T18:32:52.838Z,36.60
2023-02-06T18:35:21.451Z,38.80
2023-02-06T18:37:50.236Z,37.47
2023-02-06T18:40:19.245Z,38.30
2023-02-06T18:42:54.130Z,39.03
2023-02-06T18:45:31.212Z,37.80
2023-02-06T18:47:59.760Z,38.07
2023-02-06T18:50:28.473Z,36.57
2023-02-06T18:52:56.913Z,36.00
2023-02-06T18:55:26.020Z,34.93
2023-02-06T18:57:55.796Z,33.73
2023-02-06T19:00:25.721Z,35.30
2023-02-06T19:02:54.260Z,34.60
2023-02-06T19:05:22.702Z,33.87
2023-02-06T19:07:52.592Z,33.50
2023-02-06T19:10:22.405Z,30.33
2023-02-06T19:12:50.845Z,30.00
2023-02-06T19:15:19.690Z,31.10
2023-02-06T19:17:50.526Z,31.67
2023-02-06T19:20:19.434Z,31.20
2023-02-06T19:22:47.918Z,28.60
2023-02-06T19:25:16.305Z,30.17
2023-02-06T19:27:44.736Z,29.13
2023-02-06T19:30:14.281Z,28.60
2023-02-06T19:32:45.539Z,28.87
2023-02-06T19:35:15.589Z,28.93
2023-02-06T19:37:43.917Z,28.73
2023-02-06T19:40:12.915Z,28.40
2023-02-06T19:42:41.572Z,28.10
2023-02-06T19:45:10.113Z,28.10
2023-02-06T19:47:38.632Z,30.53
2023-02-06T19:50:08.208Z,28.73
2023-02-06T19:52:37.954Z,26.80
2023-02-06T19:55:06.897Z,27.97
2023-02-06T19:57:35.360Z,27.37
2023-02-06T20:00:04.707Z,27.53
2023-02-06T20:02:33.117Z,27.00
2023-02-06T20:05:02.652Z,26.23
2023-02-06T20:07:31.913Z,27.13
2023-02-06T20:10:01.719Z,26.37
2023-02-06T20:12:30.520Z,28.53
2023-02-06T20:15:01.659Z,26.10
2023-02-06T20:17:30.233Z,27.13
2023-02-06T20:20:00.828Z,26.73
2023-02-06T20:22:30.080Z,26.80
2023-02-06T20:24:58.568Z,26.37
2023-02-06T20:27:28.869Z,26.73
2023-02-06T20:29:57.345Z,27.03
2023-02-06T20:32:25.819Z,26.43
2023-02-06T20:34:54.199Z,27.47
2023-02-06T20:37:22.555Z,26.70
2023-02-06T20:39:50.944Z,26.37
2023-02-06T20:42:22.362Z,27.57
2023-02-06T20:44:52.690Z,26.27
2023-02-06T20:47:21.002Z,28.17
2023-02-06T20:49:49.442Z,27.53
2023-02-06T20:52:19.172Z,28.40
2023-02-06T20:54:47.610Z,27.77
2023-02-06T20:57:16.345Z,27.60
2023-02-06T20:59:44.710Z,26.70
2023-02-06T21:02:17.099Z,26.97
2023-02-06T21:04:45.514Z,27.07
2023-02-06T21:07:14.019Z,28.80
2023-02-06T21:09:42.355Z,28.30
2023-02-06T21:12:10.701Z,29.57
2023-02-06T21:14:39.109Z,30.27
2023-02-06T21:17:07.461Z,30.17
2023-02-06T21:19:37.360Z,27.93
2023-02-06T21:22:05.853Z,27.73
2023-02-06T21:24:34.272Z,28.23
2023-02-06T21:27:02.776Z,28.93
2023-02-06T21:29:31.240Z,29.30
2023-02-06T21:32:12.564Z,27.83
2023-02-06T21:34:44.067Z,27.57
2023-02-06T21:37:12.571Z,27.57
2023-02-06T21:39:41.599Z,29.33
2023-02-06T21:42:11.469Z,28.57
2023-02-06T21:44:39.986Z,28.00
2023-02-06T21:47:09.929Z,27.57
2023-02-06T21:49:38.492Z,27.70
2023-02-06T21:52:08.296Z,30.20
2023-02-06T21:54:36.803Z,42.47
2023-02-06T21:57:05.346Z,29.80
2023-02-06T21:59:34.282Z,28.07
2023-02-06T22:02:02.700Z,27.30
2023-02-06T22:04:31.294Z,29.23
2023-02-06T22:06:59.798Z,28.83
2023-02-06T22:09:29.585Z,30.40
2023-02-06T22:11:58.400Z,31.97
2023-02-06T22:14:27.289Z,29.93
2023-02-06T22:16:55.734Z,31.43
2023-02-06T22:19:24.110Z,29.97
2023-02-06T22:21:52.538Z,30.47
2023-02-06T22:24:21.438Z,30.30
2023-02-06T22:26:51.749Z,30.30
2023-02-06T22:29:20.291Z,31.73
2023-02-06T22:31:49.328Z,30.53
2023-02-06T22:34:20.021Z,30.70
2023-02-06T22:36:51.135Z,32.03
2023-02-06T22:39:19.798Z,31.33
2023-02-06T22:41:48.409Z,32.20
2023-02-06T22:44:20.798Z,30.17
2023-02-06T22:46:51.461Z,32.87
2023-02-06T22:49:21.676Z,31.70
2023-02-06T22:51:50.096Z,32.30
2023-02-06T22:54:19.515Z,30.87
2023-02-06T22:56:48.050Z,30.37
2023-02-06T22:59:21.164Z,31.43
2023-02-06T23:01:52.252Z,32.63
2023-02-06T23:04:23.376Z,32.40
2023-02-06T23:06:52.930Z,32.63
2023-02-06T23:09:23.966Z,32.07
2023-02-06T23:11:53.388Z,33.50
2023-02-06T23:14:23.189Z,34.67
2023-02-06T23:16:52.526Z,32.70
2023-02-06T23:19:22.055Z,33.43
2023-02-06T23:21:52.297Z,33.67
2023-02-06T23:24:21.441Z,32.60
2023-02-06T23:26:53.297Z,32.30
2023-02-06T23:29:24.337Z,31.00
2023-02-06T23:31:53.027Z,30.67
2023-02-06T23:34:24.255Z,31.93
2023-02-06T23:36:53.484Z,31.80
2023-02-06T23:39:21.954Z,31.47
2023-02-06T23:41:50.724Z,32.17
2023-02-06T23:44:19.225Z,34.07
2023-02-06T23:46:49.150Z,32.13
2023-02-06T23:49:17.649Z,33.47
2023-02-06T23:51:46.075Z,32.53
2023-02-06T23:54:14.496Z,35.07
2023-02-06T23:56:43.263Z,34.07
2023-02-06T23:59:12.994Z,33.33
